Details for Jet2 at EGPF




Go Back


Latest METAR
Local Time

EGPF 240750Z AUTO 05009KT 9000 OVC009 09/07 Q1027

24/05/2018, 09:10:20

Description
Results
Jet2 Logo
Number of Pilots based at EGPF
2 Pilots Based here
Number of Jet2 Flights Departed from EGPF
3 Flights Departed
Number of Jet2 Flights Arrived at EGPF
1 Flights Arrived
Number of Jet2 Schedules Departing from EGPF
31 Schedules
Number of Jet2 Schedules Arriving at EGPF
30 Schedules
Number of Jet2 Schedules Departing from EGPF availible today
7 Schedules Today
Number of Jet2 Schedules Arriving at EGPF availible today
7 Schedules Today
Average Landing Rate at EGPF
-208 fpm
Jet2 Average Landing Rate at EGPF
-156 fpm
Total Fuel Purchased at EGPF by Jet2
30,110.35 kgs / 66,381.28 lbs

Pilots Based at EGPF


Pilot ID
Pilot Name
Pilot Rank
No. of Flights
No. of Flying Hours
Renaat Meeuws
44
68.47
Thomas Bell
368
621.12
Content